Time;durP1;ratioP1;P1;durP2;ratioP2;P2;SDS_P1;SDS_P2;PMS_P1;PMS_P2;Temp;Humidity;BMP_temperature;BMP_pressure;BME280_temperature;BME280_humidity;BME280_pressure;Samples;Min_cycle;Max_cycle;Signal;HPM_P1;HPM_P2
2022/09/12 00:01:30;;;;;;;7.13;6.55;;;;;;;14.52;100.00;101777.09;4851093;29;20622;-78
2022/09/12 00:04:00;;;;;;;6.75;6.20;;;;;;;14.49;100.00;101782.38;4805006;29;20047;-78
2022/09/12 00:06:32;;;;;;;7.70;6.80;;;;;;;14.47;100.00;101786.81;4886281;29;20262;-79
2022/09/12 00:09:10;;;;;;;7.40;6.80;;;;;;;14.45;100.00;101777.97;4881479;29;20044;-79
2022/09/12 00:11:41;;;;;;;7.05;6.55;;;;;;;14.42;100.00;101778.81;4876625;29;20038;-80
2022/09/12 00:14:13;;;;;;;8.88;6.85;;;;;;;14.40;100.00;101780.59;4890056;29;20161;-80
2022/09/12 00:16:42;;;;;;;10.57;7.40;;;;;;;14.38;100.00;101782.34;4886597;29;20056;-80
2022/09/12 00:19:11;;;;;;;7.95;7.25;;;;;;;14.37;100.00;101778.81;4843696;29;20041;-80
2022/09/12 00:21:40;;;;;;;7.93;7.22;;;;;;;14.34;100.00;101776.16;4859844;29;20279;-80
2022/09/12 00:24:12;;;;;;;7.82;7.10;;;;;;;14.31;100.00;101770.88;4873013;29;20056;-79
2022/09/12 00:26:40;;;;;;;8.25;7.53;;;;;;;14.30;100.00;101768.19;4831305;29;20171;-80
2022/09/12 00:29:17;;;;;;;8.63;6.53;;;;;;;14.27;100.00;101769.06;4872342;29;20044;-79
2022/09/12 00:31:46;;;;;;;8.48;7.68;;;;;;;14.23;100.00;101756.69;4880115;29;20041;-78
2022/09/12 00:34:15;;;;;;;7.25;6.63;;;;;;;14.20;100.00;101757.56;4854048;29;20048;-79
2022/09/12 00:36:43;;;;;;;7.90;7.20;;;;;;;14.18;100.00;101763.75;4852140;29;20036;-78
2022/09/12 00:39:16;;;;;;;9.15;7.78;;;;;;;14.14;100.00;101756.66;4847785;29;20533;-79
2022/09/12 00:41:44;;;;;;;8.77;7.88;;;;;;;14.11;100.00;101754.00;4879831;29;20060;-78
2022/09/12 00:44:22;;;;;;;8.55;7.85;;;;;;;14.09;100.00;101754.00;4880811;29;20068;-79
2022/09/12 00:46:57;;;;;;;9.00;7.85;;;;;;;14.08;100.00;101756.66;4862805;29;20033;-79
2022/09/12 00:49:26;;;;;;;9.32;8.48;;;;;;;14.04;100.00;101758.41;4866502;29;20052;-79
2022/09/12 00:52:00;;;;;;;8.85;8.07;;;;;;;14.01;100.00;101751.34;4858594;29;20063;-79
2022/09/12 00:54:44;;;;;;;9.23;8.30;;;;;;;13.97;100.00;101749.56;4864585;29;20056;-79
2022/09/12 00:57:14;;;;;;;9.88;8.98;;;;;;;13.94;100.00;101738.94;4882543;29;20071;-78
2022/09/12 00:59:49;;;;;;;10.00;9.10;;;;;;;13.93;100.00;101744.22;4880284;29;20079;-78
2022/09/12 01:02:18;;;;;;;9.23;8.40;;;;;;;13.91;100.00;101744.22;4881681;29;20064;-78
2022/09/12 01:04:51;;;;;;;11.00;9.80;;;;;;;13.88;100.00;101741.56;4883412;29;20049;-79
2022/09/12 01:07:25;;;;;;;10.57;9.55;;;;;;;13.86;100.00;101745.97;4810848;29;20044;-78
2022/09/12 01:09:54;;;;;;;8.82;8.13;;;;;;;13.84;100.00;101739.78;4877016;29;20057;-79
2022/09/12 01:12:23;;;;;;;9.13;8.32;;;;;;;13.83;100.00;101740.66;4864422;29;20053;-78
2022/09/12 01:14:51;;;;;;;10.45;9.45;;;;;;;13.83;100.00;101738.00;4872042;29;20045;-79
2022/09/12 01:17:20;;;;;;;11.38;9.75;;;;;;;13.82;100.00;101738.91;4883384;29;20509;-80
2022/09/12 01:20:28;;;;;;;13.38;9.93;;;;;;;13.81;100.00;101731.81;4859245;29;20080;-79
2022/09/12 01:22:59;;;;;;;11.52;10.05;;;;;;;13.80;100.00;101735.38;4840073;29;20410;-79
2022/09/12 01:26:01;;;;;;;11.27;10.18;;;;;;;13.80;100.00;101735.38;4856296;29;20068;-79
2022/09/12 01:29:01;;;;;;;10.63;9.63;;;;;;;13.79;100.00;101738.88;4876130;29;20067;-80
2022/09/12 01:31:56;;;;;;;11.98;10.85;;;;;;;13.77;100.00;101730.91;4865402;29;20149;-79
2022/09/12 01:34:57;;;;;;;11.52;10.38;;;;;;;13.76;100.00;101728.25;4855615;29;20048;-79
2022/09/12 01:37:37;;;;;;;11.48;10.27;;;;;;;13.75;100.00;101724.72;4786392;29;20756;-81
2022/09/12 01:40:19;;;;;;;10.88;9.88;;;;;;;13.73;100.00;101725.63;4875321;29;20040;-78
2022/09/12 01:43:17;;;;;;;15.20;10.93;;;;;;;13.70;100.00;101722.94;4865254;29;20059;-78
2022/09/12 01:45:55;;;;;;;14.27;10.63;;;;;;;13.64;100.00;101722.03;4878947;29;20071;-78
2022/09/12 01:48:44;;;;;;;11.93;10.73;;;;;;;13.61;100.00;101723.78;4886879;29;20044;-78
2022/09/12 01:51:25;;;;;;;12.73;11.43;;;;;;;13.58;100.00;101719.38;4869849;29;20071;-79
2022/09/12 01:54:05;;;;;;;12.45;11.18;;;;;;;13.58;100.00;101718.47;4851557;29;20380;-80
2022/09/12 01:56:40;;;;;;;13.27;11.98;;;;;;;13.56;100.00;101714.94;4881304;29;20045;-78
2022/09/12 01:59:21;;;;;;;12.75;11.55;;;;;;;13.53;100.00;101712.28;4875052;29;20391;-78
2022/09/12 02:02:08;;;;;;;13.20;11.88;;;;;;;13.52;100.00;101708.75;4883203;29;20130;-79
2022/09/12 02:05:07;;;;;;;13.70;12.05;;;;;;;13.52;100.00;101714.03;4872557;29;20237;-78
2022/09/12 02:07:42;;;;;;;14.45;13.05;;;;;;;13.50;100.00;101709.63;4882710;29;20041;-79
2022/09/12 02:10:24;;;;;;;14.18;12.80;;;;;;;13.50;100.00;101710.50;4837724;29;20048;-79
2022/09/12 02:13:11;;;;;;;13.55;12.18;;;;;;;13.49;100.00;101700.78;4877728;29;20044;-79
2022/09/12 02:15:44;;;;;;;14.32;12.85;;;;;;;13.49;100.00;101692.84;4872480;29;20342;-79
2022/09/12 02:18:17;;;;;;;16.75;13.80;;;;;;;13.50;100.00;101689.31;4891484;29;20045;-79
2022/09/12 02:20:47;;;;;;;14.68;13.18;;;;;;;13.49;100.00;101684.00;4891539;29;20398;-79
2022/09/12 02:23:24;;;;;;;15.35;13.85;;;;;;;13.48;100.00;101674.28;4883206;29;20406;-80
2022/09/12 02:25:59;;;;;;;15.95;14.35;;;;;;;13.44;100.00;101684.88;4844745;29;20056;-79
2022/09/12 02:28:35;;;;;;;16.15;14.38;;;;;;;13.44;100.00;101684.00;4870657;29;20366;-78
2022/09/12 02:31:21;;;;;;;16.95;15.20;;;;;;;13.43;100.00;101687.53;4899016;29;20055;-78
2022/09/12 02:34:02;;;;;;;15.55;14.05;;;;;;;13.43;100.00;101690.16;4850206;29;20513;-78
2022/09/12 02:36:36;;;;;;;15.98;14.35;;;;;;;13.43;100.00;101682.22;4870310;29;20495;-78
2022/09/12 02:39:05;;;;;;;19.27;17.25;;;;;;;13.42;100.00;101680.44;4846361;29;20055;-78
2022/09/12 02:41:34;;;;;;;17.42;15.63;;;;;;;13.40;100.00;101675.16;4835605;29;20704;-78
2022/09/12 02:44:04;;;;;;;21.85;17.05;;;;;;;13.38;100.00;101676.94;4878376;29;20056;-79
2022/09/12 02:46:42;;;;;;;16.95;15.18;;;;;;;13.37;100.00;101674.25;4872478;29;20049;-79
2022/09/12 02:49:11;;;;;;;20.70;18.42;;;;;;;13.36;100.00;101675.13;4890738;29;20052;-78
2022/09/12 02:51:40;;;;;;;19.90;17.80;;;;;;;13.34;100.00;101661.00;4877525;29;20040;-78
2022/09/12 02:54:10;;;;;;;19.42;17.27;;;;;;;13.33;100.00;101667.19;4886595;29;20056;-78
2022/09/12 02:56:41;;;;;;;18.58;16.65;;;;;;;13.33;100.00;101673.34;4858144;29;20367;-80
2022/09/12 02:59:14;;;;;;;18.40;16.58;;;;;;;13.32;100.00;101668.06;4874041;29;20061;-80
2022/09/12 03:01:59;;;;;;;19.73;17.63;;;;;;;13.32;100.00;101665.41;4888947;29;20049;-80
2022/09/12 03:04:52;;;;;;;18.05;16.08;;;;;;;13.31;100.00;101666.25;4875666;29;20063;-79
2022/09/12 03:07:27;;;;;;;17.90;16.05;;;;;;;13.28;100.00;101672.41;4887346;29;20029;-80
2022/09/12 03:10:33;;;;;;;18.42;16.42;;;;;;;13.29;100.00;101665.34;4889001;29;20055;-79
2022/09/12 03:13:17;;;;;;;19.23;17.33;;;;;;;13.26;100.00;101661.81;4891253;29;20032;-79
2022/09/12 03:16:16;;;;;;;18.83;16.40;;;;;;;13.23;100.00;101656.50;4860465;29;20056;-80
2022/09/12 03:19:18;;;;;;;19.25;17.25;;;;;;;13.21;100.00;101654.72;4854064;29;20044;-79
2022/09/12 03:22:11;;;;;;;19.55;17.05;;;;;;;13.18;100.00;101665.31;4851065;29;20056;-79
2022/09/12 03:25:04;;;;;;;18.33;16.42;;;;;;;13.16;100.00;101659.13;4859879;29;20141;-79
2022/09/12 03:27:41;;;;;;;19.50;17.08;;;;;;;13.16;100.00;101645.91;4852625;29;20040;-79
2022/09/12 03:30:11;;;;;;;19.83;16.85;;;;;;;13.15;100.00;101647.63;4888359;29;20041;-80
2022/09/12 03:32:45;;;;;;;18.95;17.05;;;;;;;13.14;100.00;101651.16;4856836;29;20044;-79
2022/09/12 03:35:17;;;;;;;20.83;17.20;;;;;;;13.10;100.00;101652.03;4890143;29;20119;-78
2022/09/12 03:37:51;;;;;;;19.60;16.83;;;;;;;13.07;100.00;101652.00;4875039;29;20044;-80
2022/09/12 03:40:20;;;;;;;19.70;17.58;;;;;;;13.05;100.00;101656.41;4860369;29;20430;-80
2022/09/12 03:42:48;;;;;;;22.55;18.23;;;;;;;13.02;100.00;101649.34;4849889;29;20418;-80
2022/09/12 03:45:17;;;;;;;20.45;18.25;;;;;;;13.01;100.00;101652.84;4856016;29;20071;-79
2022/09/12 03:47:46;;;;;;;27.25;21.40;;;;;;;13.00;100.00;101650.19;4829154;29;20041;-78
2022/09/12 03:50:15;;;;;;;26.17;22.20;;;;;;;12.98;100.00;101649.31;4889023;29;20044;-78
2022/09/12 03:52:43;;;;;;;25.00;20.73;;;;;;;12.97;100.00;101650.19;4849381;29;20056;-77
2022/09/12 03:55:12;;;;;;;21.98;19.40;;;;;;;12.96;100.00;101649.28;4859347;29;20060;-79
2022/09/12 03:57:40;;;;;;;21.50;19.20;;;;;;;12.96;100.00;101648.41;4816680;29;20239;-78
2022/09/12 04:00:09;;;;;;;21.55;19.27;;;;;;;12.95;100.00;101649.28;4870102;29;20068;-79
2022/09/12 04:02:42;;;;;;;22.40;19.30;;;;;;;12.93;100.00;101649.28;4868626;29;20058;-79
2022/09/12 04:05:17;;;;;;;27.90;22.33;;;;;;;12.90;100.00;101653.69;4873692;29;20051;-78
2022/09/12 04:07:48;;;;;;;21.05;18.73;;;;;;;12.89;100.00;101650.13;4855396;29;20474;-78
2022/09/12 04:10:19;;;;;;;27.23;22.70;;;;;;;12.88;100.00;101641.31;4875384;29;20418;-78
2022/09/12 04:12:47;;;;;;;33.58;25.67;;;;;;;12.86;100.00;101645.69;4831246;29;20498;-79
2022/09/12 04:15:16;;;;;;;24.95;20.65;;;;;;;12.86;100.00;101644.84;4868342;29;20533;-78
2022/09/12 04:17:44;;;;;;;24.35;21.58;;;;;;;12.85;100.00;101641.31;4887398;29;20048;-78
2022/09/12 04:20:12;;;;;;;28.77;23.05;;;;;;;12.84;100.00;101630.72;4865059;29;20057;-78
2022/09/12 04:22:41;;;;;;;26.70;21.50;;;;;;;12.84;100.00;101639.53;4874291;29;20044;-78
2022/09/12 04:25:10;;;;;;;31.92;23.52;;;;;;;12.83;100.00;101624.50;4867236;29;20078;-78
2022/09/12 04:27:39;;;;;;;27.08;22.13;;;;;;;12.84;100.00;101633.34;4864914;29;20036;-80
2022/09/12 04:30:09;;;;;;;33.13;24.42;;;;;;;12.84;100.00;101626.28;4854411;29;20434;-79
2022/09/12 04:32:39;;;;;;;31.02;24.35;;;;;;;12.85;100.00;101627.19;4893570;29;20071;-78
2022/09/12 04:35:10;;;;;;;30.40;24.08;;;;;;;12.84;100.00;101628.06;4877215;29;20683;-78
2022/09/12 04:37:39;;;;;;;26.63;20.83;;;;;;;12.82;100.00;101625.41;4882329;29;20068;-78
2022/09/12 04:40:08;;;;;;;29.10;22.80;;;;;;;12.80;100.00;101627.16;4865358;29;20607;-78
2022/09/12 04:42:37;;;;;;;29.98;22.85;;;;;;;12.79;100.00;101630.66;4870189;29;20044;-79
2022/09/12 04:45:06;;;;;;;30.67;22.60;;;;;;;12.79;100.00;101633.31;4847752;29;20602;-79
2022/09/12 04:47:35;;;;;;;35.78;23.13;;;;;;;12.79;100.00;101629.78;4874466;29;20060;-79
2022/09/12 04:50:04;;;;;;;30.67;23.25;;;;;;;12.79;100.00;101635.94;4880526;29;20052;-78
2022/09/12 04:52:32;;;;;;;42.15;24.52;;;;;;;12.81;100.00;101633.31;4877335;29;20048;-77
2022/09/12 04:55:01;;;;;;;32.47;24.67;;;;;;;12.81;100.00;101631.56;4868552;29;20028;-78
2022/09/12 04:57:29;;;;;;;35.42;24.40;;;;;;;12.82;100.00;101628.06;4867129;29;20107;-79
2022/09/12 04:59:58;;;;;;;35.70;25.67;;;;;;;12.83;100.00;101627.16;4821224;29;20358;-79
2022/09/12 05:02:35;;;;;;;43.20;27.15;;;;;;;12.85;100.00;101622.78;4888205;29;20525;-79
2022/09/12 05:05:04;;;;;;;32.10;25.00;;;;;;;12.88;100.00;101627.19;4842881;29;20049;-78
2022/09/12 05:07:34;;;;;;;32.33;24.67;;;;;;;12.89;100.00;101626.31;4855922;29;20064;-79
2022/09/12 05:10:03;;;;;;;30.75;24.48;;;;;;;12.94;100.00;101623.72;4882280;29;20264;-79
2022/09/12 05:12:31;;;;;;;34.40;25.05;;;;;;;12.97;100.00;101626.38;4888412;29;20059;-81
2022/09/12 05:15:01;;;;;;;31.40;23.15;;;;;;;13.04;100.00;101629.06;4839348;29;20271;-80
2022/09/12 05:17:29;;;;;;;33.72;26.10;;;;;;;13.09;100.00;101623.78;4882034;29;20040;-80
2022/09/12 05:19:59;;;;;;;37.97;27.25;;;;;;;13.13;100.00;101622.94;4870909;29;20240;-80
2022/09/12 05:22:27;;;;;;;36.72;25.67;;;;;;;13.18;100.00;101618.56;4880919;29;20048;-81
2022/09/12 05:24:56;;;;;;;31.02;24.23;;;;;;;13.23;100.00;101622.13;4888607;29;20449;-80
2022/09/12 05:27:24;;;;;;;37.40;26.30;;;;;;;13.28;100.00;101624.75;4851442;29;20056;-80
2022/09/12 05:29:52;;;;;;;31.70;25.00;;;;;;;13.34;100.00;101622.16;4863616;29;20044;-80
2022/09/12 05:32:21;;;;;;;33.55;25.83;;;;;;;13.41;100.00;101620.44;4852807;29;20059;-80
2022/09/12 05:34:49;;;;;;;34.35;25.27;;;;;;;13.47;100.00;101624.88;4881247;29;20045;-80
2022/09/12 05:37:18;;;;;;;34.13;26.65;;;;;;;13.52;100.00;101626.66;4867687;29;20388;-81
2022/09/12 05:39:47;;;;;;;32.58;24.60;;;;;;;13.56;100.00;101628.44;4862308;29;20179;-80
2022/09/12 05:42:16;;;;;;;34.38;25.15;;;;;;;13.60;100.00;101624.91;4867310;29;21365;-81
2022/09/12 05:44:46;;;;;;;35.83;28.10;;;;;;;13.65;100.00;101623.16;4865143;29;20561;-81
2022/09/12 05:47:16;;;;;;;33.55;26.02;;;;;;;13.70;100.00;101624.94;4872898;29;20044;-80
2022/09/12 05:49:46;;;;;;;33.13;26.67;;;;;;;13.73;100.00;101627.63;4866319;29;20059;-81
2022/09/12 05:52:15;;;;;;;31.27;25.92;;;;;;;13.74;100.00;101630.28;4892062;29;20045;-83
2022/09/12 05:54:46;;;;;;;35.35;25.75;;;;;;;13.78;100.00;101628.50;4862804;29;20252;-82
2022/09/12 05:57:14;;;;;;;36.00;27.67;;;;;;;13.80;100.00;101621.47;4869063;29;20036;-82
2022/09/12 05:59:43;;;;;;;38.22;27.83;;;;;;;13.82;100.00;101617.03;4875225;29;20530;-80
2022/09/12 06:02:12;;;;;;;38.42;27.75;;;;;;;13.85;100.00;101622.31;4858697;29;20047;-82
2022/09/12 06:04:40;;;;;;;32.90;26.52;;;;;;;13.87;100.00;101622.34;4852702;29;20060;-82
2022/09/12 06:07:08;;;;;;;37.53;29.02;;;;;;;13.90;100.00;101623.22;4885340;29;20048;-81
2022/09/12 06:09:37;;;;;;;34.58;27.13;;;;;;;13.94;100.00;101626.78;4903902;29;20056;-81
2022/09/12 06:12:06;;;;;;;36.03;26.23;;;;;;;13.98;100.00;101621.47;4855549;29;20151;-80
2022/09/12 06:14:35;;;;;;;36.20;26.95;;;;;;;14.04;100.00;101623.25;4885701;29;20164;-79
2022/09/12 06:17:04;;;;;;;37.25;26.35;;;;;;;14.07;100.00;101625.91;4842511;29;20048;-82
2022/09/12 06:19:33;;;;;;;32.28;25.60;;;;;;;14.11;100.00;101621.50;4870237;29;20048;-81
2022/09/12 06:22:02;;;;;;;33.72;26.88;;;;;;;14.16;100.00;101617.97;4895167;29;20047;-81
2022/09/12 06:24:30;;;;;;;32.00;25.75;;;;;;;14.20;100.00;101622.38;4869172;29;20059;-81
2022/09/12 06:27:01;;;;;;;33.08;25.50;;;;;;;14.23;100.00;101622.41;4884173;29;20055;-82
2022/09/12 06:29:31;;;;;;;37.17;26.27;;;;;;;14.30;100.00;101630.34;4852022;29;20044;-82
2022/09/12 06:32:00;;;;;;;33.03;24.95;;;;;;;14.35;100.00;101623.28;4852319;29;20058;-81
2022/09/12 06:34:29;;;;;;;34.33;26.45;;;;;;;14.38;100.00;101620.59;4855077;29;20502;-82
2022/09/12 06:36:58;;;;;;;33.17;25.48;;;;;;;14.41;100.00;101629.44;4887837;29;20363;-80
2022/09/12 06:39:27;;;;;;;31.48;25.42;;;;;;;14.47;100.00;101622.38;4889560;29;20057;-83
2022/09/12 06:41:55;;;;;;;30.67;24.35;;;;;;;14.52;100.00;101621.50;4863623;29;20064;-81
2022/09/12 06:44:34;;;;;;;34.03;24.90;;;;;;;14.56;100.00;101625.91;4886268;29;20277;-82
2022/09/12 06:47:03;;;;;;;29.23;23.33;;;;;;;14.59;100.00;101618.00;4874081;29;20104;-81
2022/09/12 06:49:32;;;;;;;35.00;24.80;;;;;;;14.64;100.00;101614.44;4849773;29;20052;-82
2022/09/12 06:52:01;;;;;;;32.15;24.83;;;;;;;14.68;100.00;101617.09;4893993;29;20036;-81
2022/09/12 06:54:30;;;;;;;28.50;24.20;;;;;;;14.71;100.00;101617.09;4873740;29;20073;-82
2022/09/12 06:56:58;;;;;;;30.92;24.90;;;;;;;14.74;100.00;101617.06;4864679;29;20060;-80
2022/09/12 06:59:26;;;;;;;35.55;27.25;;;;;;;14.80;100.00;101624.13;4885764;29;20072;-81
2022/09/12 07:01:55;;;;;;;33.60;26.98;;;;;;;14.84;100.00;101619.69;4843709;29;20056;-80
2022/09/12 07:04:23;;;;;;;31.98;25.85;;;;;;;14.87;100.00;101627.66;4848441;29;20055;-82
2022/09/12 07:06:53;;;;;;;41.73;27.70;;;;;;;14.91;100.00;101618.81;4896919;29;20063;-81
2022/09/12 07:09:21;;;;;;;33.08;27.00;;;;;;;14.94;100.00;101613.50;4880422;29;20301;-82
2022/09/12 07:11:51;;;;;;;37.92;26.92;;;;;;;14.98;100.00;101612.59;4890823;29;20055;-81
2022/09/12 07:14:20;;;;;;;43.78;29.23;;;;;;;15.03;100.00;101613.47;4872721;29;20067;-80
2022/09/12 07:16:51;;;;;;;36.22;27.98;;;;;;;15.07;100.00;101617.00;4867112;29;20628;-82
2022/09/12 07:19:20;;;;;;;39.95;29.05;;;;;;;15.12;100.00;101607.25;4841408;29;20164;-81
2022/09/12 07:21:48;;;;;;;38.08;28.00;;;;;;;15.15;100.00;101613.44;4892412;29;20067;-81
2022/09/12 07:24:18;;;;;;;35.22;27.23;;;;;;;15.18;100.00;101610.78;4877651;29;20048;-81
2022/09/12 07:26:47;;;;;;;37.90;29.70;;;;;;;15.24;100.00;101614.31;4879346;29;20053;-81
2022/09/12 07:29:15;;;;;;;35.92;27.02;;;;;;;15.29;100.00;101621.34;4855494;29;20083;-80
2022/09/12 07:32:07;;;;;;;37.05;28.60;;;;;;;15.35;100.00;101608.03;4856663;29;20076;-81
2022/09/12 07:34:39;;;;;;;35.58;27.40;;;;;;;15.39;100.00;101603.59;4821105;29;20048;-80
2022/09/12 07:37:07;;;;;;;44.38;30.23;;;;;;;15.43;100.00;101602.69;4836314;29;20044;-80
2022/09/12 07:39:38;;;;;;;36.67;27.73;;;;;;;15.50;100.00;101596.47;4878299;29;20049;-82
2022/09/12 07:42:07;;;;;;;42.72;29.67;;;;;;;15.58;100.00;101604.41;4877503;29;20495;-80
2022/09/12 07:44:35;;;;;;;40.30;29.50;;;;;;;15.65;100.00;101598.16;4883346;29;20060;-82
2022/09/12 07:47:04;;;;;;;42.17;30.13;;;;;;;15.75;100.00;101593.69;4875869;29;20045;-82
2022/09/12 07:49:33;;;;;;;42.78;29.90;;;;;;;15.83;100.00;101599.84;4849667;29;20048;-80
2022/09/12 07:52:01;;;;;;;40.17;29.92;;;;;;;15.93;100.00;101603.31;4891238;29;20040;-81
2022/09/12 07:54:32;;;;;;;41.72;28.55;;;;;;;16.01;100.00;101596.19;4866938;29;20065;-81
2022/09/12 07:57:00;;;;;;;;;;;;;;;16.10;100.00;101605.84;4872322;29;20044;-80
2022/09/12 07:59:29;;;;;;;39.40;28.00;;;;;;;16.18;100.00;101607.56;4879150;29;19939;-81
2022/09/12 08:02:19;;;;;;;39.53;28.88;;;;;;;16.26;100.00;101602.19;4893218;29;20055;-80
2022/09/12 08:04:48;;;;;;;37.65;29.20;;;;;;;16.34;100.00;101605.66;4851011;29;20063;-82
2022/09/12 08:07:18;;;;;;;37.13;27.90;;;;;;;16.42;100.00;101605.56;4834824;29;20056;-81
2022/09/12 08:09:47;;;;;;;39.65;29.75;;;;;;;16.48;100.00;101601.97;4834774;29;20051;-81
2022/09/12 08:12:16;;;;;;;38.88;28.08;;;;;;;16.52;100.00;101598.38;4889712;29;20045;-82
2022/09/12 08:14:45;;;;;;;40.70;29.88;;;;;;;16.53;100.00;101603.69;4883256;29;20048;-80
2022/09/12 08:17:13;;;;;;;41.15;30.08;;;;;;;16.55;100.00;101609.00;4871847;29;20048;-81
2022/09/12 08:19:42;;;;;;;41.35;30.40;;;;;;;16.56;100.00;101611.66;4874444;29;20045;-82
2022/09/12 08:22:10;;;;;;;39.30;30.60;;;;;;;16.59;100.00;101604.56;4833126;29;20037;-81
2022/09/12 08:24:39;;;;;;;40.05;30.33;;;;;;;16.63;100.00;101606.28;4851392;29;20060;-81
2022/09/12 08:27:10;;;;;;;40.75;29.30;;;;;;;16.67;100.00;101606.25;4853054;29;20060;-81
2022/09/12 08:29:38;;;;;;;36.88;27.73;;;;;;;16.74;100.00;101599.94;4881191;29;20036;-81
2022/09/12 08:32:07;;;;;;;38.58;28.95;;;;;;;16.83;100.00;101601.66;4842320;29;20061;-81
2022/09/12 08:34:35;;;;;;;40.80;30.50;;;;;;;16.94;100.00;101604.22;4870775;29;20913;-81
2022/09/12 08:37:04;;;;;;;42.40;30.45;;;;;;;17.06;100.00;101603.19;4838288;29;20055;-81
2022/09/12 08:39:32;;;;;;;39.97;30.02;;;;;;;17.17;100.00;101600.41;4852213;29;20064;-80
2022/09/12 08:42:04;;;;;;;37.95;27.77;;;;;;;17.25;100.00;101606.53;4870134;29;20044;-82
2022/09/12 08:44:53;;;;;;;36.22;28.30;;;;;;;17.33;100.00;101601.97;4876593;29;20077;-82
2022/09/12 08:47:32;;;;;;;36.22;27.38;;;;;;;17.40;100.00;101601.00;4881895;29;20183;-83
2022/09/12 08:50:07;;;;;;;36.47;26.92;;;;;;;17.44;100.00;101600.03;4873239;29;20037;-83
2022/09/12 08:53:02;;;;;;;41.55;29.00;;;;;;;17.52;100.00;101599.94;4861732;29;20553;-82
2022/09/12 08:55:37;;;;;;;32.58;24.73;;;;;;;17.59;100.00;101606.06;4893019;29;20264;-82
2022/09/12 08:58:21;;;;;;;32.25;24.08;;;;;;;17.64;100.00;101598.91;4888378;29;20165;-82
2022/09/12 09:01:02;;;;;;;33.58;23.90;;;;;;;17.70;100.00;101609.47;4889568;29;20057;-82
2022/09/12 09:03:46;;;;;;;27.35;20.27;;;;;;;17.73;100.00;101610.31;4891409;29;20045;-82
2022/09/12 09:06:23;;;;;;;29.77;21.90;;;;;;;17.80;100.00;101610.22;4864507;29;20068;-82
2022/09/12 09:09:01;;;;;;;32.63;21.90;;;;;;;17.87;100.00;101610.13;4860016;29;20045;-83
2022/09/12 09:11:46;;;;;;;29.35;22.50;;;;;;;17.96;100.00;101608.22;4887228;29;20053;-83
2022/09/12 09:17:18;;;;;;;26.83;19.42;;;;;;;18.03;100.00;101601.91;4859161;29;20093;-82
2022/09/12 09:19:55;;;;;;;23.35;18.15;;;;;;;18.07;100.00;101603.59;4877482;29;20056;-84
2022/09/12 09:22:42;;;;;;;22.73;18.08;;;;;;;18.12;100.00;101596.41;4881557;29;20064;-83
2022/09/12 09:25:24;;;;;;;25.00;17.95;;;;;;;18.16;100.00;101598.13;4868640;29;20044;-83
2022/09/12 09:28:10;;;;;;;24.27;18.35;;;;;;;18.23;100.00;101606.91;4874282;29;20052;-83
2022/09/12 09:30:42;;;;;;;20.25;15.70;;;;;;;18.29;100.00;101590.81;4869924;29;20041;-84
2022/09/12 09:33:21;;;;;;;24.15;16.17;;;;;;;18.34;100.00;101588.94;4879097;29;20260;-82
2022/09/12 09:36:05;;;;;;;19.77;15.15;;;;;;;18.40;100.00;101577.28;4878549;29;20513;-83
2022/09/12 09:39:11;;;;;;;20.20;15.40;;;;;;;18.42;100.00;101568.34;4871681;29;20040;-82
2022/09/12 09:41:46;;;;;;;18.63;14.82;;;;;;;18.46;100.00;101575.38;4872072;29;20052;-81
2022/09/12 09:44:15;;;;;;;19.48;13.80;;;;;;;18.50;100.00;101570.84;4863493;29;20068;-82
2022/09/12 09:46:43;;;;;;;21.73;14.43;;;;;;;18.56;100.00;101564.53;4885403;29;20052;-82
2022/09/12 09:49:15;;;;;;;21.98;15.68;;;;;;;18.62;100.00;101564.41;4845780;29;20227;-82
2022/09/12 09:51:47;;;;;;;21.83;14.65;;;;;;;18.68;100.00;101564.31;4851165;29;20421;-82
2022/09/12 09:54:27;;;;;;;18.50;14.02;;;;;;;18.77;100.00;101566.81;4877534;29;20028;-82
2022/09/12 09:56:56;;;;;;;16.48;12.27;;;;;;;18.87;100.00;101560.41;4852116;29;20409;-84
2022/09/12 09:59:30;;;;;;;20.15;12.38;;;;;;;18.99;100.00;101555.72;4836670;29;20040;-82
2022/09/12 10:02:11;;;;;;;16.13;13.23;;;;;;;19.12;100.00;101557.22;4866025;29;20060;-82
2022/09/12 10:04:52;;;;;;;17.98;13.48;;;;;;;19.25;100.00;101547.16;4882462;29;20057;-82
2022/09/12 10:07:23;;;;;;;19.65;13.13;;;;;;;19.37;100.00;101552.22;4857910;29;20156;-82
2022/09/12 10:10:14;;;;;;;17.55;13.25;;;;;;;19.48;100.00;101544.84;4854396;29;20406;-82
2022/09/12 10:12:43;;;;;;;21.27;15.63;;;;;;;19.62;100.00;101554.34;4866909;29;20064;-81
2022/09/12 10:15:22;;;;;;;20.75;14.73;;;;;;;19.77;100.00;101548.69;4905537;29;20052;-82
2022/09/12 10:17:51;;;;;;;17.88;13.80;;;;;;;19.91;100.00;101544.78;4881459;29;20056;-82
2022/09/12 10:20:36;;;;;;;24.05;16.55;;;;;;;20.07;100.00;101540.78;4877175;29;20122;-82
2022/09/12 10:23:36;;;;;;;22.13;15.75;;;;;;;20.20;100.00;101544.03;4881793;29;20398;-82
2022/09/12 10:26:10;;;;;;;20.47;16.37;;;;;;;20.32;100.00;101530.34;4842851;29;20045;-83
2022/09/12 10:28:45;;;;;;;23.02;17.45;;;;;;;20.42;100.00;101530.97;4895702;29;20060;-83
2022/09/12 10:31:27;;;;;;;21.33;16.42;;;;;;;20.50;100.00;101523.59;4894288;29;20076;-83
2022/09/12 10:33:59;;;;;;;25.90;18.33;;;;;;;20.60;100.00;101522.47;4866104;29;20055;-83
2022/09/12 10:36:39;;;;;;;22.88;17.95;;;;;;;20.71;100.00;101522.16;4860685;29;20728;-83
2022/09/12 10:39:18;;;;;;;27.02;19.90;;;;;;;20.81;100.00;101515.63;4852202;29;20041;-84
2022/09/12 10:41:46;;;;;;;24.13;17.77;;;;;;;20.92;100.00;101509.94;4852013;29;20053;-82
2022/09/12 10:44:17;;;;;;;26.98;18.63;;;;;;;21.04;100.00;101516.75;4867974;29;20520;-82
2022/09/12 10:46:46;;;;;;;23.70;18.55;;;;;;;21.11;100.00;101514.75;4881728;29;20060;-83
2022/09/12 10:49:38;;;;;;;25.05;19.08;;;;;;;21.14;100.00;101507.50;4858890;29;20059;-83
2022/09/12 10:52:23;;;;;;;28.25;19.30;;;;;;;21.22;100.00;101507.28;4841814;29;20071;-83
2022/09/12 10:54:51;;;;;;;28.58;19.10;;;;;;;21.27;100.00;101496.44;4889257;29;20064;-83
2022/09/12 10:57:28;;;;;;;26.05;19.48;;;;;;;21.32;100.00;101492.69;4846751;29;20598;-84
2022/09/12 11:00:26;;;;;;;26.73;18.95;;;;;;;21.39;100.00;101496.03;4886443;29;20045;-84
2022/09/12 11:03:14;;;;;;;27.98;18.33;;;;;;;21.47;100.00;101507.41;4865090;29;20045;-82
2022/09/12 11:05:57;;;;;;;22.05;18.17;;;;;;;21.50;100.00;101498.41;4887968;29;20060;-82
2022/09/12 11:08:42;;;;;;;25.92;18.60;;;;;;;21.53;100.00;101496.50;4879683;29;20052;-82
2022/09/12 11:11:45;;;;;;;24.67;15.25;;;;;;;21.63;100.00;101494.41;4886253;29;20051;-82
2022/09/12 11:14:46;;;;;;;19.48;15.13;;;;;;;21.71;100.00;101499.50;4843495;29;20059;-84
2022/09/12 11:17:21;;;;;;;19.92;14.27;;;;;;;21.75;100.00;101483.25;4890368;29;20063;-82
2022/09/12 11:20:11;;;;;;;22.73;14.32;;;;;;;21.85;100.00;101480.25;4895815;29;20048;-80
2022/09/12 11:22:59;;;;;;;22.50;13.75;;;;;;;21.92;100.00;101487.19;4896703;29;20053;-82
2022/09/12 11:25:33;;;;;;;26.30;13.05;;;;;;;21.93;99.50;101473.72;4869174;29;20088;-82
2022/09/12 11:28:27;;;;;;;17.83;13.90;;;;;;;21.95;98.32;101471.00;4892501;29;20044;-85
2022/09/12 11:30:55;;;;;;;18.83;12.55;;;;;;;21.98;99.66;101466.41;4843701;29;20037;-83
2022/09/12 11:33:43;;;;;;;19.55;14.20;;;;;;;22.00;97.52;101471.69;4888926;29;20617;-84
2022/09/12 11:36:38;;;;;;;19.88;13.02;;;;;;;21.99;99.04;101464.59;4879148;29;20142;-84
2022/09/12 11:39:22;;;;;;;19.55;13.20;;;;;;;22.03;99.05;101463.53;4839253;29;20543;-86
2022/09/12 11:41:57;;;;;;;22.50;14.48;;;;;;;22.06;97.91;101455.41;4823960;29;20582;-84